CCGS Sir Wilfrid Laurier — CGJK — position and weather

sailwx.info

Track history (hours):
 
Tides and Currents Weather Stations Pressure Air Temp Water Temp Dewpoint Dewpoint Depression Visibility Wind Speed Wind Dir Waves Ship Positions

Oceanographic research ship CCGS Sir Wilfrid Laurier (Canada)

Detailed information on ship capabilities available from ARCUS's ALIAS (Arctic Logistics Information and Support) project.

Last reported at 2016-Jan-29 19:29 UTC. Time now 2016-Feb-08 03:46 UTC.
Position N 52°16' W 128°29'.
Warning: this ship's position is 9 days out of date.

Length 83 m; beam 16.2 m; draft 6 m.

Type: SAR. MMSI: 316052000.

Date/timePositionNaut miles runAvg speedWind from/ knotsBaromVisibWave heightAir tempDewpointWater temp
2016-Jan-29 19:29N 52°16' W 128°29'7 7.0
2016-Jan-29 18:33N 52°15' W 128°18'7 6.7
2016-Jan-29 17:32N 52°13' W 128°07'3 3.5
2016-Jan-29 16:33N 52°09' W 128°08'0 0.0
2016-Jan-29 15:33N 52°09' W 128°08'6 6.4
2016-Jan-29 14:32N 52°05' W 128°00'5 4.6
2016-Jan-29 13:33N 52°02' W 127°55'49 2.1
2016-Jan-28 14:32N 51°13' W 127°53'  
2016-Jan-23 07:12N 50°57' W 128°01'6 8.7
2016-Jan-23 06:30N 50°58' W 127°51'8 8.8
2016-Jan-23 05:33N 50°55' W 127°39'4 3.8
2016-Jan-23 04:31N 50°51' W 127°36'0 0.1
2016-Jan-23 03:31N 50°51' W 127°36'0 0.0
2016-Jan-23 02:31N 50°51' W 127°36'0 0.0
2016-Jan-23 01:31N 50°51' W 127°36'0 0.0
2016-Jan-23 00:31N 50°51' W 127°36'0 0.0
2016-Jan-22 23:31N 50°51' W 127°36'0 0.0
2016-Jan-22 22:31N 50°51' W 127°36'0 0.0
2016-Jan-22 21:31N 50°51' W 127°36'4 4.1
2016-Jan-22 20:33N 50°54' W 127°39'9 8.9
2016-Jan-22 19:33N 51°02' W 127°47'12 0.3
2016-Jan-20 21:03N 51°14' W 127°53'714.5
2016-Jan-20 20:33N 51°07' W 127°49'1414.1
2016-Jan-20 19:33N 50°54' W 127°39'1212.0
2016-Jan-20 18:33N 50°45' W 127°28'2 1.5
2016-Jan-20 17:28N 50°43' W 127°29'0 0.0
2016-Jan-20 16:28N 50°43' W 127°29'0 0.0
2016-Jan-20 15:28N 50°43' W 127°29'0 0.0
2016-Jan-20 13:04N 50°43' W 127°29'0 0.0
2016-Jan-20 12:10N 50°43' W 127°29'0 0.0
2016-Jan-20 11:16N 50°43' W 127°29'0 0.0
2016-Jan-20 10:28N 50°43' W 127°29'0 0.0
2016-Jan-20 09:28N 50°43' W 127°29'0 0.0
2016-Jan-20 08:22N 50°43' W 127°29'0 0.0
2016-Jan-20 07:28N 50°43' W 127°29'0 0.0
2016-Jan-20 06:28N 50°43' W 127°29'0 0.0
2016-Jan-20 05:28N 50°43' W 127°29'0 0.0
2016-Jan-20 04:28N 50°43' W 127°29'0 0.0
2016-Jan-19 23:28N 50°43' W 127°29'0 0.0
2016-Jan-19 22:22N 50°43' W 127°29'0 0.0
2016-Jan-19 21:22N 50°43' W 127°29'  
Track history (hours):
 
Tides and Currents Weather Stations Pressure Air Temp Water Temp Dewpoint Dewpoint Depression Visibility Wind Speed Wind Dir Waves Ship Positions

Oceanographic research ship CCGS Sir Wilfrid Laurier (Canada)

Detailed information on ship capabilities available from ARCUS's ALIAS (Arctic Logistics Information and Support) project.

Last reported at 2016-Jan-29 19:29 UTC. Time now 2016-Feb-08 03:46 UTC.
Position N 52°16' W 128°29'.
Warning: this ship's position is 9 days out of date.

Length 83 m; beam 16.2 m; draft 6 m.

Type: SAR. MMSI: 316052000.

Date/timePositionNaut miles runAvg speedWind from/ knotsBaromVisibWave heightAir tempDewpointWater temp
2016-Jan-29 19:29N 52°16' W 128°29'7 7.0
2016-Jan-29 18:33N 52°15' W 128°18'7 6.7
2016-Jan-29 17:32N 52°13' W 128°07'3 3.5
2016-Jan-29 16:33N 52°09' W 128°08'0 0.0
2016-Jan-29 15:33N 52°09' W 128°08'6 6.4
2016-Jan-29 14:32N 52°05' W 128°00'5 4.6
2016-Jan-29 13:33N 52°02' W 127°55'49 2.1
2016-Jan-28 14:32N 51°13' W 127°53'  
2016-Jan-23 07:12N 50°57' W 128°01'6 8.7
2016-Jan-23 06:30N 50°58' W 127°51'8 8.8
2016-Jan-23 05:33N 50°55' W 127°39'4 3.8
2016-Jan-23 04:31N 50°51' W 127°36'0 0.1
2016-Jan-23 03:31N 50°51' W 127°36'0 0.0
2016-Jan-23 02:31N 50°51' W 127°36'0 0.0
2016-Jan-23 01:31N 50°51' W 127°36'0 0.0
2016-Jan-23 00:31N 50°51' W 127°36'0 0.0
2016-Jan-22 23:31N 50°51' W 127°36'0 0.0
2016-Jan-22 22:31N 50°51' W 127°36'0 0.0
2016-Jan-22 21:31N 50°51' W 127°36'4 4.1
2016-Jan-22 20:33N 50°54' W 127°39'9 8.9
2016-Jan-22 19:33N 51°02' W 127°47'12 0.3
2016-Jan-20 21:03N 51°14' W 127°53'714.5
2016-Jan-20 20:33N 51°07' W 127°49'1414.1
2016-Jan-20 19:33N 50°54' W 127°39'1212.0
2016-Jan-20 18:33N 50°45' W 127°28'2 1.5
2016-Jan-20 17:28N 50°43' W 127°29'0 0.0
2016-Jan-20 16:28N 50°43' W 127°29'0 0.0
2016-Jan-20 15:28N 50°43' W 127°29'0 0.0
2016-Jan-20 13:04N 50°43' W 127°29'0 0.0
2016-Jan-20 12:10N 50°43' W 127°29'0 0.0
2016-Jan-20 11:16N 50°43' W 127°29'0 0.0
2016-Jan-20 10:28N 50°43' W 127°29'0 0.0
2016-Jan-20 09:28N 50°43' W 127°29'0 0.0
2016-Jan-20 08:22N 50°43' W 127°29'0 0.0
2016-Jan-20 07:28N 50°43' W 127°29'0 0.0
2016-Jan-20 06:28N 50°43' W 127°29'0 0.0
2016-Jan-20 05:28N 50°43' W 127°29'0 0.0
2016-Jan-20 04:28N 50°43' W 127°29'0 0.0
2016-Jan-19 23:28N 50°43' W 127°29'0 0.0
2016-Jan-19 22:22N 50°43' W 127°29'0 0.0
2016-Jan-19 21:22N 50°43' W 127°29'  

Dump ship's entire track history